Time;durP1;ratioP1;P1;durP2;ratioP2;P2;SDS_P1;SDS_P2;PMS_P1;PMS_P2;Temp;Humidity;BMP_temperature;BMP_pressure;BME280_temperature;BME280_humidity;BME280_pressure;Samples;Min_cycle;Max_cycle;Signal;HPM_P1;HPM_P2
2023/12/02 00:00:32;;;;;;;;;;;-1.10;99.90;;;;;;5106104;28;19920;-71
2023/12/02 00:02:59;;;;;;;;;;;-1.10;99.90;;;;;;5109961;28;19977;-71
2023/12/02 00:05:25;;;;;;;;;;;-1.10;99.90;;;;;;5110030;28;19926;-71
2023/12/02 00:07:52;;;;;;;;;;;-1.10;99.90;;;;;;5109971;28;19986;-72
2023/12/02 00:10:19;;;;;;;;;;;-1.10;99.90;;;;;;5109951;28;20236;-71
2023/12/02 00:12:45;;;;;;;;;;;-1.00;99.90;;;;;;5110031;28;19947;-71
2023/12/02 00:15:12;;;;;;;;;;;-1.00;99.90;;;;;;5110020;28;20280;-71
2023/12/02 00:17:40;;;;;;;;;;;-1.00;99.90;;;;;;5109962;28;19952;-71
2023/12/02 00:20:07;;;;;;;;;;;-1.00;99.90;;;;;;5109802;28;19979;-71
2023/12/02 00:22:34;;;;;;;;;;;-1.00;99.90;;;;;;5110060;28;20160;-71
2023/12/02 00:25:00;;;;;;;;;;;-0.90;99.90;;;;;;5109760;28;19919;-71
2023/12/02 00:27:27;;;;;;;;;;;-0.90;99.90;;;;;;5106742;28;19947;-72
2023/12/02 00:29:53;;;;;;;;;;;-0.90;99.90;;;;;;5106659;28;19920;-71
2023/12/02 00:32:20;;;;;;;;;;;-0.90;99.90;;;;;;5106244;28;19920;-71
2023/12/02 00:34:48;;;;;;;;;;;-0.90;99.90;;;;;;5106454;28;19955;-71
2023/12/02 00:37:15;;;;;;;;;;;-1.00;99.90;;;;;;5106387;28;20210;-71
2023/12/02 00:39:42;;;;;;;;;;;-1.00;99.90;;;;;;5106151;28;19955;-71
2023/12/02 00:42:08;;;;;;;;;;;-1.00;99.90;;;;;;5106654;28;19920;-70
2023/12/02 00:44:35;;;;;;;;;;;-0.90;99.90;;;;;;5105713;28;19983;-71
2023/12/02 00:47:01;;;;;;;;;;;-1.00;99.90;;;;;;5106277;28;19983;-71
2023/12/02 00:49:28;;;;;;;;;;;-1.00;99.90;;;;;;5106218;28;19920;-71
2023/12/02 00:51:56;;;;;;;;;;;-1.00;99.90;;;;;;5106209;28;19928;-71
2023/12/02 00:54:22;;;;;;;;;;;-1.00;99.90;;;;;;5105839;28;20257;-71
2023/12/02 00:56:49;;;;;;;;;;;-1.00;99.90;;;;;;5105923;28;19995;-71
2023/12/02 00:59:16;;;;;;;;;;;-1.00;99.90;;;;;;5105922;28;19963;-71
2023/12/02 01:01:42;;;;;;;;;;;-0.90;99.90;;;;;;5105909;28;19926;-71
2023/12/02 01:04:09;;;;;;;;;;;-0.90;99.90;;;;;;5105904;28;19920;-71
2023/12/02 01:06:35;;;;;;;;;;;-0.90;99.90;;;;;;5106098;28;20166;-71
2023/12/02 01:09:03;;;;;;;;;;;-1.00;99.90;;;;;;5097788;28;20000;-71
2023/12/02 01:11:30;;;;;;;;;;;-0.90;99.90;;;;;;5106026;28;19995;-71
2023/12/02 01:13:57;;;;;;;;;;;-1.00;99.90;;;;;;5105531;28;20162;-71
2023/12/02 01:16:23;;;;;;;;;;;-0.90;99.90;;;;;;5105737;28;19920;-71
2023/12/02 01:18:50;;;;;;;;;;;-0.90;99.90;;;;;;5105488;28;19942;-71
2023/12/02 01:21:16;;;;;;;;;;;-0.90;99.90;;;;;;5105295;28;19920;-71
2023/12/02 01:23:43;;;;;;;;;;;-0.90;99.90;;;;;;5105170;28;19924;-70
2023/12/02 01:26:11;;;;;;;;;;;-1.00;99.90;;;;;;5105519;28;19987;-71
2023/12/02 01:28:38;;;;;;;;;;;-1.00;99.90;;;;;;5105283;28;19984;-71
2023/12/02 01:31:04;;;;;;;;;;;-1.00;99.90;;;;;;5105649;28;20116;-71
2023/12/02 01:33:31;;;;;;;;;;;-1.00;99.90;;;;;;5105148;28;19964;-71
2023/12/02 01:35:58;;;;;;;;;;;-1.00;99.90;;;;;;5105403;28;19920;-71
2023/12/02 01:38:24;;;;;;;;;;;-1.10;99.90;;;;;;5105136;28;19983;-71
2023/12/02 01:40:51;;;;;;;;;;;-1.10;99.90;;;;;;5105404;28;20121;-71
2023/12/02 01:43:23;;;;;;;;;;;-1.10;99.90;;;;;;5105255;28;19920;-71
2023/12/02 01:45:50;;;;;;;;;;;-1.10;99.90;;;;;;5105297;28;19924;-71
2023/12/02 01:48:17;;;;;;;;;;;-1.20;99.90;;;;;;5105298;28;19920;-71
2023/12/02 01:50:44;;;;;;;;;;;-1.20;99.90;;;;;;5105089;28;19926;-71
2023/12/02 01:53:11;;;;;;;;;;;-1.20;99.90;;;;;;5104749;28;19927;-70
2023/12/02 01:55:37;;;;;;;;;;;-1.20;99.90;;;;;;5104665;28;20218;-71
2023/12/02 01:58:04;;;;;;;;;;;-1.20;99.90;;;;;;5104864;28;19985;-71
2023/12/02 02:00:32;;;;;;;;;;;-1.20;99.90;;;;;;5104879;28;19927;-70
2023/12/02 02:02:58;;;;;;;;;;;-1.20;99.90;;;;;;5104576;28;20385;-71
2023/12/02 02:05:25;;;;;;;;;;;-1.10;99.90;;;;;;5104879;28;20160;-71
2023/12/02 02:07:52;;;;;;;;;;;-1.20;99.90;;;;;;5104871;28;19920;-71
2023/12/02 02:10:20;;;;;;;;;;;-1.20;99.90;;;;;;5104957;28;19920;-71
2023/12/02 02:12:47;;;;;;;;;;;-1.20;99.90;;;;;;5104709;28;19963;-71
2023/12/02 02:15:13;;;;;;;;;;;-1.20;99.90;;;;;;5104713;28;20116;-71
2023/12/02 02:17:41;;;;;;;;;;;-1.30;99.90;;;;;;5104671;28;20022;-71
2023/12/02 02:20:09;;;;;;;;;;;-1.30;99.90;;;;;;5104567;28;19920;-71
2023/12/02 02:22:37;;;;;;;;;;;-1.30;99.90;;;;;;5104175;28;19965;-71
2023/12/02 02:25:04;;;;;;;;;;;-1.30;99.90;;;;;;5104472;28;19999;-70
2023/12/02 02:27:31;;;;;;;;;;;-1.40;99.90;;;;;;5104528;28;19920;-70
2023/12/02 02:29:58;;;;;;;;;;;-1.30;99.90;;;;;;5104420;28;19920;-69
2023/12/02 02:32:24;;;;;;;;;;;-1.40;99.90;;;;;;5104365;28;19983;-71
2023/12/02 02:34:51;;;;;;;;;;;-1.40;99.90;;;;;;5104187;28;19920;-70
2023/12/02 02:37:18;;;;;;;;;;;-1.40;99.90;;;;;;5104514;28;19999;-70
2023/12/02 02:39:46;;;;;;;;;;;-1.30;99.90;;;;;;5104335;28;19926;-71
2023/12/02 02:42:12;;;;;;;;;;;-1.40;99.90;;;;;;5104210;28;19920;-70
2023/12/02 02:44:39;;;;;;;;;;;-1.40;99.90;;;;;;5104058;28;19959;-70
2023/12/02 02:47:05;;;;;;;;;;;-1.40;99.90;;;;;;5103989;28;19959;-70
2023/12/02 02:49:32;;;;;;;;;;;-1.30;99.90;;;;;;5103503;28;19962;-70
2023/12/02 02:51:59;;;;;;;;;;;-1.30;99.90;;;;;;5103999;28;19983;-70
2023/12/02 02:54:25;;;;;;;;;;;-1.40;99.90;;;;;;5103511;28;19920;-71
2023/12/02 02:56:54;;;;;;;;;;;-1.30;99.90;;;;;;5104212;28;19926;-71
2023/12/02 02:59:21;;;;;;;;;;;-1.40;99.90;;;;;;5103765;28;19920;-70
2023/12/02 03:01:48;;;;;;;;;;;-1.40;99.90;;;;;;5103861;28;19983;-70
2023/12/02 03:04:15;;;;;;;;;;;-1.40;99.90;;;;;;5103717;28;19920;-70
2023/12/02 03:06:41;;;;;;;;;;;-1.40;99.90;;;;;;5103981;28;19987;-71
2023/12/02 03:09:11;;;;;;;;;;;-1.40;99.90;;;;;;5103979;28;19979;-71
2023/12/02 03:11:37;;;;;;;;;;;-1.40;99.90;;;;;;5103664;28;20206;-71
2023/12/02 03:14:05;;;;;;;;;;;-1.40;99.90;;;;;;5103292;28;20008;-71
2023/12/02 03:16:32;;;;;;;;;;;-1.40;99.90;;;;;;5103978;28;19920;-70
2023/12/02 03:18:59;;;;;;;;;;;-1.50;99.90;;;;;;5103564;28;19951;-71
2023/12/02 03:21:26;;;;;;;;;;;-1.50;99.90;;;;;;5103713;28;19926;-70
2023/12/02 03:23:52;;;;;;;;;;;-1.60;99.90;;;;;;5103208;28;19926;-70
2023/12/02 03:26:19;;;;;;;;;;;-1.60;99.90;;;;;;5103975;28;19920;-71
2023/12/02 03:28:45;;;;;;;;;;;-1.60;99.90;;;;;;5103477;28;20214;-70
2023/12/02 03:31:13;;;;;;;;;;;-1.60;99.90;;;;;;5103812;28;19983;-71
2023/12/02 03:33:40;;;;;;;;;;;-1.50;99.90;;;;;;5103323;28;19946;-71
2023/12/02 03:36:07;;;;;;;;;;;-1.50;99.90;;;;;;5103795;28;19927;-71
2023/12/02 03:38:34;;;;;;;;;;;-1.50;99.90;;;;;;5103530;28;19956;-70
2023/12/02 03:41:02;;;;;;;;;;;-1.60;99.90;;;;;;5103761;28;19991;-70
2023/12/02 03:43:29;;;;;;;;;;;-1.60;99.90;;;;;;5103316;28;19955;-71
2023/12/02 03:45:56;;;;;;;;;;;-1.60;99.90;;;;;;5103238;28;19970;-70
2023/12/02 03:48:24;;;;;;;;;;;-1.60;99.90;;;;;;5103269;28;20121;-70
2023/12/02 03:50:51;;;;;;;;;;;-1.60;99.90;;;;;;5103516;28;19963;-70
2023/12/02 03:53:17;;;;;;;;;;;-1.60;99.90;;;;;;5103207;28;19926;-71
2023/12/02 03:55:44;;;;;;;;;;;-1.60;99.90;;;;;;5103181;28;19972;-71
2023/12/02 03:58:11;;;;;;;;;;;-1.60;99.90;;;;;;5103524;28;19919;-71
2023/12/02 04:00:37;;;;;;;;;;;-1.70;99.90;;;;;;5103114;28;19923;-71
2023/12/02 04:03:05;;;;;;;;;;;-1.60;99.90;;;;;;5105351;28;19959;-70
2023/12/02 04:05:33;;;;;;;;;;;-1.60;99.90;;;;;;5107200;28;19920;-71
2023/12/02 04:08:00;;;;;;;;;;;-1.70;99.90;;;;;;5107273;28;20113;-71
2023/12/02 04:10:26;;;;;;;;;;;-1.80;99.90;;;;;;5107172;28;19926;-70
2023/12/02 04:12:53;;;;;;;;;;;-1.80;99.90;;;;;;5106903;28;20003;-71
2023/12/02 04:15:21;;;;;;;;;;;-1.80;99.90;;;;;;5106718;28;20232;-70
2023/12/02 04:17:47;;;;;;;;;;;-1.80;99.90;;;;;;5106941;28;20125;-71
2023/12/02 04:20:15;;;;;;;;;;;-1.80;99.90;;;;;;5107042;28;19926;-70
2023/12/02 04:22:43;;;;;;;;;;;-1.80;99.90;;;;;;5106519;28;20218;-70
2023/12/02 04:25:10;;;;;;;;;;;-1.80;99.90;;;;;;5106483;28;20214;-70
2023/12/02 04:27:37;;;;;;;;;;;-1.80;99.90;;;;;;5106808;28;19919;-70
2023/12/02 04:30:04;;;;;;;;;;;-1.80;99.90;;;;;;5107056;28;19920;-71
2023/12/02 04:32:30;;;;;;;;;;;-1.90;99.90;;;;;;5106741;28;19986;-70
2023/12/02 04:34:57;;;;;;;;;;;-1.80;99.90;;;;;;5106082;28;19927;-70
2023/12/02 04:37:24;;;;;;;;;;;-1.80;99.90;;;;;;5106766;28;19920;-70
2023/12/02 04:39:52;;;;;;;;;;;-1.80;99.90;;;;;;5106610;28;19987;-70
2023/12/02 04:42:19;;;;;;;;;;;-1.80;99.90;;;;;;5106611;28;19977;-71
2023/12/02 04:44:46;;;;;;;;;;;-1.80;99.90;;;;;;5106088;28;19920;-70
2023/12/02 04:47:13;;;;;;;;;;;-1.90;99.90;;;;;;5106342;28;20206;-70
2023/12/02 04:49:40;;;;;;;;;;;-1.80;99.90;;;;;;5106280;28;20124;-71
2023/12/02 04:52:07;;;;;;;;;;;-1.80;99.90;;;;;;5106397;28;19987;-70
2023/12/02 04:54:33;;;;;;;;;;;-1.80;99.90;;;;;;5106092;28;19987;-70
2023/12/02 04:57:01;;;;;;;;;;;-1.80;99.90;;;;;;5105941;28;19928;-70
2023/12/02 04:59:28;;;;;;;;;;;-1.90;99.90;;;;;;5106262;28;20203;-70
2023/12/02 05:01:55;;;;;;;;;;;-1.90;99.90;;;;;;5105755;28;19960;-70
2023/12/02 05:04:24;;;;;;;;;;;-1.90;99.90;;;;;;5105243;28;20388;-70
2023/12/02 05:06:51;;;;;;;;;;;-1.90;99.90;;;;;;5106049;28;19920;-70
2023/12/02 05:09:18;;;;;;;;;;;-1.90;99.90;;;;;;5106111;28;19948;-70
2023/12/02 05:11:45;;;;;;;;;;;-1.90;99.90;;;;;;5105932;28;19920;-71
2023/12/02 05:14:13;;;;;;;;;;;-1.80;99.90;;;;;;5104979;28;20366;-70
2023/12/02 05:16:41;;;;;;;;;;;-1.70;99.90;;;;;;5105859;28;19951;-71
2023/12/02 05:19:08;;;;;;;;;;;-1.70;99.90;;;;;;5105896;28;19991;-70
2023/12/02 05:21:36;;;;;;;;;;;-1.70;99.90;;;;;;5105473;28;19920;-70
2023/12/02 05:24:03;;;;;;;;;;;-1.70;99.90;;;;;;5097128;28;19991;-71
2023/12/02 05:26:29;;;;;;;;;;;-1.70;99.90;;;;;;5105776;28;19955;-70
2023/12/02 05:28:56;;;;;;;;;;;-1.80;99.90;;;;;;5105724;28;19988;-70
2023/12/02 05:31:24;;;;;;;;;;;-1.80;99.90;;;;;;5105589;28;19926;-71
2023/12/02 05:33:51;;;;;;;;;;;-1.80;99.90;;;;;;5104840;28;19928;-70
2023/12/02 05:36:18;;;;;;;;;;;-1.90;99.90;;;;;;5105227;28;19920;-70
2023/12/02 05:38:45;;;;;;;;;;;-1.90;99.90;;;;;;5105439;28;19928;-70
2023/12/02 05:41:11;;;;;;;;;;;-1.90;99.90;;;;;;5105445;28;20109;-70
2023/12/02 05:43:38;;;;;;;;;;;-1.90;99.90;;;;;;5105168;28;19992;-70
2023/12/02 05:46:05;;;;;;;;;;;-1.90;99.90;;;;;;5105387;28;20109;-70
2023/12/02 05:48:33;;;;;;;;;;;-1.90;99.90;;;;;;5105018;28;19991;-69
2023/12/02 05:51:01;;;;;;;;;;;-1.90;99.90;;;;;;5105353;28;19955;-70
2023/12/02 05:53:28;;;;;;;;;;;-1.90;99.90;;;;;;5104561;28;20281;-71
2023/12/02 05:55:55;;;;;;;;;;;-1.90;99.90;;;;;;5105178;28;19951;-71
2023/12/02 05:58:22;;;;;;;;;;;-1.90;99.90;;;;;;5104861;28;19951;-70
2023/12/02 06:00:49;;;;;;;;;;;-1.90;99.90;;;;;;5104673;28;19943;-70
2023/12/02 06:03:16;;;;;;;;;;;-1.80;99.90;;;;;;5104824;28;19947;-71
2023/12/02 06:05:44;;;;;;;;;;;-1.90;99.90;;;;;;5105043;28;19987;-70
2023/12/02 06:08:10;;;;;;;;;;;-1.90;99.90;;;;;;5104941;28;19951;-70
2023/12/02 06:10:37;;;;;;;;;;;-1.90;99.90;;;;;;5104664;28;20265;-71
2023/12/02 06:13:04;;;;;;;;;;;-2.00;99.90;;;;;;5104753;28;19983;-70
2023/12/02 06:15:30;;;;;;;;;;;-2.10;99.90;;;;;;5104533;28;19942;-70
2023/12/02 06:17:57;;;;;;;;;;;-2.10;99.90;;;;;;5104813;28;19998;-70
2023/12/02 06:20:24;;;;;;;;;;;-2.20;99.90;;;;;;5104704;28;19920;-70
2023/12/02 06:22:52;;;;;;;;;;;-2.20;99.90;;;;;;5104416;28;19924;-70
2023/12/02 06:25:19;;;;;;;;;;;-2.20;99.90;;;;;;5103593;28;19958;-71
2023/12/02 06:27:46;;;;;;;;;;;-2.10;99.90;;;;;;5104434;28;19920;-69
2023/12/02 06:30:15;;;;;;;;;;;-2.10;99.90;;;;;;5104317;28;19969;-70
2023/12/02 06:32:42;;;;;;;;;;;-2.10;99.90;;;;;;5104136;28;19920;-70
2023/12/02 06:35:09;;;;;;;;;;;-2.10;99.90;;;;;;5103829;28;20010;-70
2023/12/02 06:37:35;;;;;;;;;;;-2.10;99.90;;;;;;5104367;28;19920;-71
2023/12/02 06:40:05;;;;;;;;;;;-2.20;99.90;;;;;;5104393;28;20117;-70
2023/12/02 06:42:31;;;;;;;;;;;-2.20;99.90;;;;;;5103890;28;20214;-70
2023/12/02 06:44:58;;;;;;;;;;;-2.20;99.90;;;;;;5103725;28;20324;-71
2023/12/02 06:47:25;;;;;;;;;;;-2.20;99.90;;;;;;5104152;28;19987;-69
2023/12/02 06:49:52;;;;;;;;;;;-2.20;99.90;;;;;;5103853;28;19965;-70
2023/12/02 06:52:18;;;;;;;;;;;-2.20;99.90;;;;;;5104068;28;19952;-70
2023/12/02 06:54:45;;;;;;;;;;;-2.20;99.90;;;;;;5103848;28;20181;-70
2023/12/02 06:57:13;;;;;;;;;;;-2.20;99.90;;;;;;5104144;28;19987;-70
2023/12/02 06:59:40;;;;;;;;;;;-2.20;99.90;;;;;;5103765;28;19959;-71
2023/12/02 07:02:07;;;;;;;;;;;-2.20;99.90;;;;;;5104113;28;19942;-70
2023/12/02 07:04:34;;;;;;;;;;;-2.30;99.90;;;;;;5103759;28;19962;-70
2023/12/02 07:07:01;;;;;;;;;;;-2.30;99.90;;;;;;5103838;28;19920;-70
2023/12/02 07:09:27;;;;;;;;;;;-2.30;99.90;;;;;;5103923;28;19951;-70
2023/12/02 07:11:54;;;;;;;;;;;-2.30;99.90;;;;;;5103858;28;19950;-69
2023/12/02 07:14:22;;;;;;;;;;;-2.30;99.90;;;;;;5103252;28;19920;-69
2023/12/02 07:16:48;;;;;;;;;;;-2.30;99.90;;;;;;5103560;28;19958;-69
2023/12/02 07:19:15;;;;;;;;;;;-2.30;99.90;;;;;;5103478;28;20232;-70
2023/12/02 07:21:42;;;;;;;;;;;-2.30;99.90;;;;;;5103500;28;19958;-69
2023/12/02 07:24:09;;;;;;;;;;;-2.30;99.90;;;;;;5103196;28;19920;-69
2023/12/02 07:26:36;;;;;;;;;;;-2.30;99.90;;;;;;5103734;28;19987;-69
2023/12/02 07:29:03;;;;;;;;;;;-2.30;99.90;;;;;;5095635;28;19920;-69
2023/12/02 07:31:31;;;;;;;;;;;-2.40;99.90;;;;;;5103419;28;19924;-69
2023/12/02 07:33:58;;;;;;;;;;;-2.40;99.90;;;;;;5103200;28;19988;-70
2023/12/02 07:36:24;;;;;;;;;;;-2.40;99.90;;;;;;5104872;28;20174;-70
2023/12/02 07:38:51;;;;;;;;;;;-2.40;99.90;;;;;;5107618;28;19926;-69
2023/12/02 07:41:17;;;;;;;;;;;-2.50;99.90;;;;;;5107780;28;19987;-69
2023/12/02 07:43:44;;;;;;;;;;;-2.40;99.90;;;;;;5107374;28;19920;-70
2023/12/02 07:46:11;;;;;;;;;;;-2.40;99.90;;;;;;5107635;28;19943;-70
2023/12/02 07:48:39;;;;;;;;;;;-2.40;99.90;;;;;;5107128;28;20210;-70
2023/12/02 07:51:06;;;;;;;;;;;-2.40;99.90;;;;;;5107560;28;19984;-70
2023/12/02 07:53:33;;;;;;;;;;;-2.40;99.90;;;;;;5107369;28;19961;-69
2023/12/02 07:56:00;;;;;;;;;;;-2.40;99.90;;;;;;5107371;28;19927;-70
2023/12/02 07:58:26;;;;;;;;;;;-2.40;99.90;;;;;;5107470;28;19920;-69
2023/12/02 08:00:53;;;;;;;;;;;-2.40;99.90;;;;;;5106986;28;19920;-70
2023/12/02 08:03:20;;;;;;;;;;;-2.40;99.90;;;;;;5107053;28;19982;-70
2023/12/02 08:05:48;;;;;;;;;;;-2.40;99.90;;;;;;5106915;28;19963;-70
2023/12/02 08:08:14;;;;;;;;;;;-2.40;99.90;;;;;;5107287;28;19920;-69
2023/12/02 08:10:41;;;;;;;;;;;-2.30;99.90;;;;;;5107004;28;20146;-70
2023/12/02 08:13:07;;;;;;;;;;;-2.30;99.90;;;;;;5107051;28;19920;-69
2023/12/02 08:15:35;;;;;;;;;;;-2.30;99.90;;;;;;5107051;28;19983;-69
2023/12/02 08:18:03;;;;;;;;;;;-2.20;99.90;;;;;;5095087;28;19921;-70
2023/12/02 08:20:29;;;;;;;;;;;-2.20;99.90;;;;;;5094315;28;19924;-71
2023/12/02 08:22:57;;;;;;;;;;;-2.20;99.90;;;;;;5106539;28;19991;-70
2023/12/02 08:25:24;;;;;;;;;;;-2.30;99.90;;;;;;5106712;28;19920;-69
2023/12/02 08:27:51;;;;;;;;;;;-2.30;99.90;;;;;;5106484;28;19927;-69
2023/12/02 08:30:17;;;;;;;;;;;-2.30;99.90;;;;;;5106761;28;19920;-73
2023/12/02 08:32:44;;;;;;;;;;;-2.30;99.90;;;;;;5106641;28;19920;-71
2023/12/02 08:35:11;;;;;;;;;;;-2.30;99.90;;;;;;5106559;28;19927;-73
2023/12/02 08:37:37;;;;;;;;;;;-2.30;99.90;;;;;;5106371;28;19966;-71
2023/12/02 08:40:06;;;;;;;;;;;-2.30;99.90;;;;;;5106148;28;19952;-76
2023/12/02 08:42:33;;;;;;;;;;;-2.20;99.90;;;;;;5105668;28;19927;-69
2023/12/02 08:45:00;;;;;;;;;;;-2.20;99.90;;;;;;5105525;28;19924;-69
2023/12/02 08:47:26;;;;;;;;;;;-2.30;99.90;;;;;;5105032;28;19986;-69
2023/12/02 08:49:53;;;;;;;;;;;-2.30;99.90;;;;;;5106260;28;19947;-69
2023/12/02 08:52:19;;;;;;;;;;;-2.30;99.90;;;;;;5106129;28;19920;-69
2023/12/02 08:54:46;;;;;;;;;;;-2.30;99.90;;;;;;5105874;28;19920;-69
2023/12/02 08:57:14;;;;;;;;;;;-2.30;99.90;;;;;;5106315;28;19920;-69
2023/12/02 08:59:41;;;;;;;;;;;-2.30;99.90;;;;;;5105833;28;20240;-69
2023/12/02 09:02:08;;;;;;;;;;;-2.30;99.90;;;;;;5106414;28;19920;-71
2023/12/02 09:04:35;;;;;;;;;;;-2.30;99.90;;;;;;5106074;28;19920;-71
2023/12/02 09:07:02;;;;;;;;;;;-2.20;99.90;;;;;;5105939;28;19920;-70
2023/12/02 09:09:29;;;;;;;;;;;-2.30;99.90;;;;;;5106201;28;19927;-70
2023/12/02 09:11:56;;;;;;;;;;;-2.20;99.90;;;;;;5105998;28;19939;-71
2023/12/02 09:14:24;;;;;;;;;;;-2.20;99.90;;;;;;5105485;28;19920;-71
2023/12/02 09:16:50;;;;;;;;;;;-2.20;99.90;;;;;;5105623;28;19926;-71
2023/12/02 09:19:34;;;;;;;;;;;-2.20;99.90;;;;;;5105976;28;19987;-71
2023/12/02 09:22:00;;;;;;;;;;;-2.20;99.90;;;;;;5098211;28;19916;-71
2023/12/02 09:24:36;;;;;;;;;;;-2.20;99.90;;;;;;5105521;28;19942;-70
2023/12/02 09:27:05;;;;;;;;;;;-2.20;99.90;;;;;;5097900;28;19983;-71
2023/12/02 09:29:37;;;;;;;;;;;-2.10;99.90;;;;;;5105312;28;19959;-69
2023/12/02 09:32:08;;;;;;;;;;;-2.10;99.90;;;;;;5097905;28;20178;-69
2023/12/02 09:34:50;;;;;;;;;;;-2.10;99.90;;;;;;5104991;28;19920;-69
2023/12/02 09:37:30;;;;;;;;;;;-2.10;99.90;;;;;;5099626;28;19983;-71
2023/12/02 09:40:18;;;;;;;;;;;-2.10;99.90;;;;;;5105495;28;19928;-69
2023/12/02 09:42:46;;;;;;;;;;;-2.00;99.90;;;;;;5105167;28;19955;-69
2023/12/02 09:45:14;;;;;;;;;;;-2.00;99.90;;;;;;5104806;28;20203;-69
2023/12/02 09:47:43;;;;;;;;;;;-2.10;99.90;;;;;;5105150;28;19987;-68
2023/12/02 09:50:10;;;;;;;;;;;-2.00;99.90;;;;;;5104928;28;19927;-68
2023/12/02 09:52:55;;;;;;;;;;;-2.00;99.90;;;;;;5104878;28;19924;-69
2023/12/02 09:55:26;;;;;;;;;;;-1.90;99.90;;;;;;5104947;28;19920;-69
2023/12/02 09:57:56;;;;;;;;;;;-2.00;99.90;;;;;;5105073;28;19931;-70
2023/12/02 10:00:30;;;;;;;;;;;-2.00;99.90;;;;;;5104792;28;19975;-69
2023/12/02 10:03:03;;;;;;;;;;;-2.00;99.90;;;;;;5104844;28;19963;-70
2023/12/02 10:05:33;;;;;;;;;;;-2.00;99.90;;;;;;5104852;28;19951;-70
2023/12/02 10:08:03;;;;;;;;;;;-2.00;99.90;;;;;;5104491;28;20416;-69
2023/12/02 10:10:32;;;;;;;;;;;-2.00;99.90;;;;;;5104758;28;19926;-70
2023/12/02 10:13:05;;;;;;;;;;;-2.00;99.90;;;;;;5104645;28;19956;-70
2023/12/02 10:15:35;;;;;;;;;;;-2.00;99.90;;;;;;5104605;28;19920;-69
2023/12/02 10:18:10;;;;;;;;;;;-2.00;99.90;;;;;;5096166;28;20256;-69
2023/12/02 10:20:39;;;;;;;;;;;-1.90;99.90;;;;;;5104769;28;19985;-69
2023/12/02 10:23:10;;;;;;;;;;;-2.00;99.90;;;;;;5104490;28;19955;-69
2023/12/02 10:25:41;;;;;;;;;;;-1.90;99.90;;;;;;5104540;28;20306;-70
2023/12/02 10:28:12;;;;;;;;;;;-1.90;99.90;;;;;;5104444;28;19975;-70
2023/12/02 10:30:45;;;;;;;;;;;-1.90;99.90;;;;;;5104571;28;19928;-70
2023/12/02 10:33:16;;;;;;;;;;;-1.90;99.90;;;;;;5104369;28;19992;-69
2023/12/02 10:35:42;;;;;;;;;;;-1.80;99.90;;;;;;5103971;28;19947;-72
2023/12/02 10:38:14;;;;;;;;;;;-1.80;99.90;;;;;;5104397;28;19920;-70
2023/12/02 10:40:41;;;;;;;;;;;-1.80;99.90;;;;;;5104312;28;20025;-76
2023/12/02 10:43:11;;;;;;;;;;;-1.90;99.90;;;;;;5104325;28;19927;-70
2023/12/02 10:45:40;;;;;;;;;;;-1.90;99.90;;;;;;5103769;28;19927;-71
2023/12/02 10:48:10;;;;;;;;;;;-1.90;99.90;;;;;;5104329;28;19942;-69
2023/12/02 10:50:39;;;;;;;;;;;-1.90;99.90;;;;;;5104029;28;19983;-69
2023/12/02 10:53:05;;;;;;;;;;;-1.90;99.90;;;;;;5103535;28;20217;-69
2023/12/02 10:55:33;;;;;;;;;;;-1.80;99.90;;;;;;5103759;28;19991;-69
2023/12/02 10:58:03;;;;;;;;;;;-1.80;99.90;;;;;;5103973;28;19920;-69
2023/12/02 11:00:31;;;;;;;;;;;-1.80;99.90;;;;;;5103838;28;19920;-70
2023/12/02 11:03:00;;;;;;;;;;;-1.80;99.90;;;;;;5103575;28;19926;-69
2023/12/02 11:05:30;;;;;;;;;;;-1.80;99.90;;;;;;5103829;28;19962;-69
2023/12/02 11:08:00;;;;;;;;;;;-1.80;99.90;;;;;;5103549;28;19962;-70
2023/12/02 11:10:35;;;;;;;;;;;-1.80;99.90;;;;;;5103422;28;19920;-69
2023/12/02 11:13:04;;;;;;;;;;;-1.80;99.90;;;;;;5103776;28;19952;-69
2023/12/02 11:15:33;;;;;;;;;;;-1.90;99.90;;;;;;5103672;28;19920;-69
2023/12/02 11:18:00;;;;;;;;;;;-1.90;99.90;;;;;;5103310;28;19962;-69
2023/12/02 11:20:32;;;;;;;;;;;-1.90;99.90;;;;;;5103780;28;19924;-69
2023/12/02 11:23:10;;;;;;;;;;;-1.80;99.90;;;;;;5103260;28;19920;-69
2023/12/02 11:25:45;;;;;;;;;;;-1.90;99.90;;;;;;5103421;28;19987;-70
2023/12/02 11:28:16;;;;;;;;;;;-1.90;99.90;;;;;;5103478;28;19920;-71
2023/12/02 11:30:50;;;;;;;;;;;-1.90;99.90;;;;;;5103732;28;19962;-70
2023/12/02 11:33:20;;;;;;;;;;;-1.90;99.90;;;;;;5103155;28;19927;-70
2023/12/02 11:35:54;;;;;;;;;;;-1.90;99.90;;;;;;5103509;28;20029;-70
2023/12/02 11:38:21;;;;;;;;;;;-1.90;99.90;;;;;;5103431;28;20182;-70
2023/12/02 11:40:52;;;;;;;;;;;-2.00;99.90;;;;;;5103641;28;19923;-70
2023/12/02 11:43:26;;;;;;;;;;;-1.90;99.90;;;;;;5103238;28;20242;-70
2023/12/02 11:45:54;;;;;;;;;;;-1.90;99.90;;;;;;5103594;28;19920;-70
2023/12/02 11:48:26;;;;;;;;;;;-2.00;99.90;;;;;;5103692;28;19971;-70
2023/12/02 11:51:08;;;;;;;;;;;-2.00;99.90;;;;;;5103386;28;20218;-70
2023/12/02 11:53:49;;;;;;;;;;;-1.90;99.90;;;;;;5103035;28;19926;-70
2023/12/02 11:56:17;;;;;;;;;;;-1.90;99.90;;;;;;5097040;28;20149;-70
2023/12/02 11:58:51;;;;;;;;;;;-1.90;99.90;;;;;;5103336;28;19920;-70
2023/12/02 12:01:24;;;;;;;;;;;-1.90;99.90;;;;;;5103340;28;19992;-70
2023/12/02 12:03:56;;;;;;;;;;;-1.90;99.90;;;;;;5103116;28;19983;-70
2023/12/02 12:06:33;;;;;;;;;;;-1.90;99.90;;;;;;5103103;28;19932;-70
2023/12/02 12:09:07;;;;;;;;;;;-1.90;99.90;;;;;;5103215;28;19987;-70
2023/12/02 12:11:34;;;;;;;;;;;-1.90;99.90;;;;;;5103018;28;19939;-71
2023/12/02 12:14:03;;;;;;;;;;;-1.90;99.90;;;;;;5102961;28;19920;-74
2023/12/02 12:16:31;;;;;;;;;;;-1.90;99.90;;;;;;5103010;28;20214;-70
2023/12/02 12:18:58;;;;;;;;;;;-1.90;99.90;;;;;;5102628;28;20308;-70
2023/12/02 12:21:25;;;;;;;;;;;-1.80;99.90;;;;;;5103334;28;19920;-70
2023/12/02 12:23:53;;;;;;;;;;;-1.80;99.90;;;;;;5104549;28;19990;-70
2023/12/02 12:26:19;;;;;;;;;;;-1.90;99.90;;;;;;5106619;28;19920;-70
2023/12/02 12:28:49;;;;;;;;;;;-1.90;99.90;;;;;;5106832;28;20243;-70
2023/12/02 12:31:15;;;;;;;;;;;-1.90;99.90;;;;;;5106796;28;19920;-70
2023/12/02 12:33:44;;;;;;;;;;;-1.90;99.90;;;;;;5106450;28;19926;-71
2023/12/02 12:36:11;;;;;;;;;;;-1.80;99.90;;;;;;5106717;28;19926;-70
2023/12/02 12:38:37;;;;;;;;;;;-1.90;99.90;;;;;;5106576;28;19991;-70
2023/12/02 12:41:08;;;;;;;;;;;-1.90;99.90;;;;;;5106649;28;19920;-70
2023/12/02 12:43:37;;;;;;;;;;;-1.90;99.90;;;;;;5106237;28;19983;-71
2023/12/02 12:46:04;;;;;;;;;;;-1.90;99.90;;;;;;5106518;28;19920;-70
2023/12/02 12:48:31;;;;;;;;;;;-1.90;99.90;;;;;;5106331;28;19955;-70
2023/12/02 12:50:59;;;;;;;;;;;-1.90;99.90;;;;;;5106065;28;20218;-70
2023/12/02 12:53:28;;;;;;;;;;;-1.90;99.90;;;;;;5106025;28;20114;-72
2023/12/02 12:55:59;;;;;;;;;;;-1.90;99.90;;;;;;5106264;28;19986;-71
2023/12/02 12:58:27;;;;;;;;;;;-1.80;99.90;;;;;;5106078;28;20181;-70
2023/12/02 13:00:57;;;;;;;;;;;-1.90;99.90;;;;;;5105828;28;19920;-70
2023/12/02 13:03:28;;;;;;;;;;;-2.00;99.90;;;;;;5106069;28;19956;-70
2023/12/02 13:06:00;;;;;;;;;;;-2.00;99.90;;;;;;5108501;28;19920;-70
2023/12/02 13:08:30;;;;;;;;;;;-2.00;99.90;;;;;;5106541;28;19926;-71
2023/12/02 13:11:03;;;;;;;;;;;-2.10;99.90;;;;;;5106108;28;19955;-70
2023/12/02 13:13:31;;;;;;;;;;;-2.10;99.90;;;;;;5106016;28;19920;-70
2023/12/02 13:15:59;;;;;;;;;;;-2.10;99.90;;;;;;5105960;28;19939;-70
2023/12/02 13:18:28;;;;;;;;;;;-2.20;99.90;;;;;;5105935;28;20156;-70
2023/12/02 13:20:55;;;;;;;;;;;-2.20;99.90;;;;;;5105845;28;19947;-71
2023/12/02 13:23:23;;;;;;;;;;;-2.20;99.90;;;;;;5104046;28;19920;-71
2023/12/02 13:25:52;;;;;;;;;;;-2.10;99.90;;;;;;5105355;28;19960;-70
2023/12/02 13:28:25;;;;;;;;;;;-2.10;99.90;;;;;;5105591;28;19978;-71
2023/12/02 13:30:55;;;;;;;;;;;-2.20;99.90;;;;;;5105450;28;19920;-70
2023/12/02 13:33:22;;;;;;;;;;;-2.20;99.90;;;;;;5105140;28;20144;-70
2023/12/02 13:35:54;;;;;;;;;;;-2.20;99.90;;;;;;5104618;28;19987;-70
2023/12/02 13:38:26;;;;;;;;;;;-2.20;99.90;;;;;;5105346;28;19987;-70
2023/12/02 13:40:57;;;;;;;;;;;-2.20;99.90;;;;;;5105278;28;19924;-70
2023/12/02 13:43:26;;;;;;;;;;;-2.20;99.90;;;;;;5104690;28;20210;-70
2023/12/02 13:45:55;;;;;;;;;;;-2.20;99.90;;;;;;5105088;28;19951;-70
2023/12/02 13:48:23;;;;;;;;;;;-2.20;99.90;;;;;;5104751;28;19952;-70
2023/12/02 13:50:54;;;;;;;;;;;-2.20;99.90;;;;;;5105004;28;19920;-70
2023/12/02 13:53:28;;;;;;;;;;;-2.20;99.90;;;;;;5104828;28;19920;-70
2023/12/02 13:55:59;;;;;;;;;;;-2.10;99.90;;;;;;5104584;28;19955;-70
2023/12/02 13:58:29;;;;;;;;;;;-2.10;99.90;;;;;;5104712;28;19920;-70
2023/12/02 14:01:03;;;;;;;;;;;-2.20;99.90;;;;;;5104644;28;19971;-70
2023/12/02 14:03:37;;;;;;;;;;;-2.20;99.90;;;;;;5104656;28;19957;-70
2023/12/02 14:06:08;;;;;;;;;;;-2.20;99.90;;;;;;5099621;28;20121;-70
2023/12/02 14:08:36;;;;;;;;;;;-2.30;99.90;;;;;;5104899;28;20391;-69
2023/12/02 14:11:05;;;;;;;;;;;-2.30;99.90;;;;;;5099263;28;19983;-70
2023/12/02 14:13:38;;;;;;;;;;;-2.30;99.90;;;;;;5103844;28;20113;-70
2023/12/02 14:16:23;;;;;;;;;;;-2.30;99.90;;;;;;5099385;28;19979;-70
2023/12/02 14:18:54;;;;;;;;;;;-2.30;99.90;;;;;;5101819;28;19920;-70
2023/12/02 14:21:29;;;;;;;;;;;-2.30;99.90;;;;;;5104170;28;19966;-70